Impacts METAR Board
IDs:

KFLL - Ft Lauderdale-Hollyw, FL, US

Updated at: 0300 UTC 06 Dec 2019
Potential Impact None Slight Moderate High
Time 05/15Z 05/16Z 05/17Z 05/18Z 05/19Z 05/20Z 05/21Z 05/22Z 05/23Z 06/00Z 06/01Z 06/02Z 06/03Z
Temp65 67 70 71 70 71 71 69 66 64 63 61 59
Dewpt45 42 43 43 42 42 40 39 41 42 43 43 45
Altim30.12 30.11 30.09 30.08 30.05 30.06 30.07 30.08 30.09 30.11 30.13 30.15 30.15
VIS10 10 10 10 10 10 10 10 10 10 10 10 10
CIG-- 250 250 250 250 250 250 250 250 250 250 250 250
CoverSCTBKNBKNOVCOVCOVCBKNBKNBKNBKNBKNBKNBKN
FltCatVFRVFRVFRVFRVFRVFRVFRVFRVFRVFRVFRVFRVFR
WX--------------------------
WDir360340360350033020320320340340340340
WSpd9 10 6 7 5 8 5 5 3 3 4 4 5
WGst-- -- -- -- -- -- -- -- -- -- -- -- --
Raw hourly METARs
KFLL 051453Z 36009KT 10SM SCT250 18/07 A3012 RMK AO2 SLP198 T01830072 51017
KFLL 051553Z COR 34010KT 10SM BKN250 19/06 A3011 RMK AO2 SLP196 T01940056
KFLL 051653Z 36006KT 10SM BKN250 21/06 A3009 RMK AO2 SLP190 T02110061
KFLL 051753Z 35007KT 10SM OVC250 22/06 A3008 RMK AO2 SLP184 T02170061 10222 20128 58014
KFLL 051853Z VRB05KT 10SM OVC250 21/06 A3005 RMK AO2 SLP177 T02110056
KFLL 051953Z 33008KT 10SM FEW150 OVC250 22/06 A3006 RMK AO2 SLP178 T02170056
KFLL 052053Z 02005KT 10SM FEW040 FEW150 BKN250 22/04 A3007 RMK AO2 SLP181 T02170044 55003
KFLL 052153Z 32005KT 10SM FEW040 BKN250 21/04 A3008 RMK AO2 SLP187 T02060039
KFLL 052253Z 32003KT 10SM FEW040 BKN250 19/05 A3009 RMK AO2 SLP189 T01890050
KFLL 052353Z 34003KT 10SM BKN250 18/06 A3011 RMK AO2 SLP197 T01780056 10222 20178 53016
KFLL 060053Z 34004KT 10SM BKN250 17/06 A3013 RMK AO2 SLP201 T01720061
KFLL 060153Z 34004KT 10SM BKN250 16/06 A3015 RMK AO2 SLP208 T01610061
KFLL 060253Z 34005KT 10SM BKN250 15/07 A3015 RMK AO2 SLP208 T01500072 51012



Page loaded:  03:59 UTC  |   07:59 PM Pacific  |   08:59 PM Mountain  |   09:59 PM Central  |   10:59 PM Eastern

 

ADVISORIES

FORECASTS

FORECASTS

OBSERVATIONS

USER TOOLS

ABOUT US